You are listening to:
KLOU ATIS - Louisville, Kentucky, United States

KLOU 070353Z AUTO 00000KT 10SM CLR 14/09 A3007 RMK AO2 SLP181 T01390089

If stream doesn't start automatically press the play button
If stream stops then reload player then press play